sensor_id;sensor_type;location;lat;lon;timestamp;pressure;altitude;pressure_sealevel;temperature;humidity
43818;BME280;29868;47.360;18.984;2023-02-22T00:00:38;100350.72;;;5.72;100.00
43818;BME280;29868;47.360;18.984;2023-02-22T00:03:28;100351.13;;;5.84;100.00
43818;BME280;29868;47.360;18.984;2023-02-22T00:06:04;100348.47;;;5.83;100.00
43818;BME280;29868;47.360;18.984;2023-02-22T00:08:32;100351.78;;;5.79;100.00
43818;BME280;29868;47.360;18.984;2023-02-22T00:11:00;100348.28;;;5.77;100.00
43818;BME280;29868;47.360;18.984;2023-02-22T00:13:27;100344.56;;;5.69;100.00
43818;BME280;29868;47.360;18.984;2023-02-22T00:15:56;100351.72;;;5.77;100.00
43818;BME280;29868;47.360;18.984;2023-02-22T00:18:22;100348.31;;;5.78;100.00
43818;BME280;29868;47.360;18.984;2023-02-22T00:20:48;100351.41;;;5.68;100.00
43818;BME280;29868;47.360;18.984;2023-02-22T00:23:16;100359.25;;;5.71;100.00
43818;BME280;29868;47.360;18.984;2023-02-22T00:25:46;100363.41;;;5.68;100.00
43818;BME280;29868;47.360;18.984;2023-02-22T00:28:13;100361.78;;;5.70;100.00
43818;BME280;29868;47.360;18.984;2023-02-22T00:30:40;100361.31;;;5.81;100.00
43818;BME280;29868;47.360;18.984;2023-02-22T00:33:09;100359.25;;;5.95;100.00
43818;BME280;29868;47.360;18.984;2023-02-22T00:35:35;100362.97;;;6.03;100.00
43818;BME280;29868;47.360;18.984;2023-02-22T00:38:01;100361.75;;;6.18;100.00
43818;BME280;29868;47.360;18.984;2023-02-22T00:40:33;100355.31;;;6.32;100.00
43818;BME280;29868;47.360;18.984;2023-02-22T00:43:02;100356.28;;;6.36;100.00
43818;BME280;29868;47.360;18.984;2023-02-22T00:45:29;100352.97;;;6.40;100.00
43818;BME280;29868;47.360;18.984;2023-02-22T00:47:55;100347.25;;;6.48;100.00
43818;BME280;29868;47.360;18.984;2023-02-22T00:50:21;100348.16;;;6.50;100.00
43818;BME280;29868;47.360;18.984;2023-02-22T00:52:47;100349.22;;;6.55;100.00
43818;BME280;29868;47.360;18.984;2023-02-22T00:55:28;100353.44;;;6.53;100.00
43818;BME280;29868;47.360;18.984;2023-02-22T00:57:54;100351.84;;;6.58;100.00
43818;BME280;29868;47.360;18.984;2023-02-22T01:00:25;100350.41;;;6.67;100.00
43818;BME280;29868;47.360;18.984;2023-02-22T01:02:51;100349.84;;;6.77;100.00
43818;BME280;29868;47.360;18.984;2023-02-22T01:05:20;100343.28;;;6.87;100.00
43818;BME280;29868;47.360;18.984;2023-02-22T01:07:47;100343.53;;;6.96;100.00
43818;BME280;29868;47.360;18.984;2023-02-22T01:10:13;100341.75;;;6.93;100.00
43818;BME280;29868;47.360;18.984;2023-02-22T01:12:39;100341.19;;;7.03;100.00
43818;BME280;29868;47.360;18.984;2023-02-22T01:15:07;100337.13;;;7.12;100.00
43818;BME280;29868;47.360;18.984;2023-02-22T01:17:36;100337.22;;;7.15;100.00
43818;BME280;29868;47.360;18.984;2023-02-22T01:20:03;100334.09;;;7.26;100.00
43818;BME280;29868;47.360;18.984;2023-02-22T01:22:35;100337.56;;;7.27;100.00
43818;BME280;29868;47.360;18.984;2023-02-22T01:25:02;100331.69;;;7.32;100.00
43818;BME280;29868;47.360;18.984;2023-02-22T01:27:28;100331.06;;;7.41;100.00
43818;BME280;29868;47.360;18.984;2023-02-22T01:29:53;100330.22;;;7.42;100.00
43818;BME280;29868;47.360;18.984;2023-02-22T01:32:18;100338.06;;;7.45;100.00
43818;BME280;29868;47.360;18.984;2023-02-22T01:34:44;100333.66;;;7.41;100.00
43818;BME280;29868;47.360;18.984;2023-02-22T01:37:09;100329.31;;;7.39;100.00
43818;BME280;29868;47.360;18.984;2023-02-22T01:39:35;100332.66;;;7.36;100.00
43818;BME280;29868;47.360;18.984;2023-02-22T01:42:00;100334.59;;;7.43;100.00
43818;BME280;29868;47.360;18.984;2023-02-22T01:46:55;100335.47;;;7.44;100.00
43818;BME280;29868;47.360;18.984;2023-02-22T01:49:23;100333.94;;;7.50;100.00
43818;BME280;29868;47.360;18.984;2023-02-22T01:51:51;100331.91;;;7.40;100.00
43818;BME280;29868;47.360;18.984;2023-02-22T01:54:27;100329.41;;;7.43;100.00
43818;BME280;29868;47.360;18.984;2023-02-22T01:59:32;100323.81;;;7.28;100.00
43818;BME280;29868;47.360;18.984;2023-02-22T02:01:59;100321.94;;;7.22;100.00
43818;BME280;29868;47.360;18.984;2023-02-22T02:04:25;100325.22;;;7.17;100.00
43818;BME280;29868;47.360;18.984;2023-02-22T02:06:52;100317.56;;;7.20;100.00
43818;BME280;29868;47.360;18.984;2023-02-22T02:09:30;100324.34;;;7.16;100.00
43818;BME280;29868;47.360;18.984;2023-02-22T02:11:59;100320.66;;;7.08;100.00
43818;BME280;29868;47.360;18.984;2023-02-22T02:14:25;100310.84;;;6.96;100.00
43818;BME280;29868;47.360;18.984;2023-02-22T08:50:26;100448.19;;;12.91;100.00
43818;BME280;29868;47.360;18.984;2023-02-22T08:52:54;100451.84;;;13.15;100.00
43818;BME280;29868;47.360;18.984;2023-02-22T08:55:25;100452.91;;;13.38;100.00
43818;BME280;29868;47.360;18.984;2023-02-22T08:57:51;100450.31;;;13.45;100.00
43818;BME280;29868;47.360;18.984;2023-02-22T09:00:18;100451.28;;;13.60;100.00
43818;BME280;29868;47.360;18.984;2023-02-22T09:02:44;100451.34;;;13.77;100.00
43818;BME280;29868;47.360;18.984;2023-02-22T09:05:10;100454.03;;;13.96;100.00
43818;BME280;29868;47.360;18.984;2023-02-22T09:07:35;100459.25;;;14.05;100.00
43818;BME280;29868;47.360;18.984;2023-02-22T09:10:00;100460.13;;;14.02;100.00
43818;BME280;29868;47.360;18.984;2023-02-22T09:12:26;100455.75;;;13.92;100.00
43818;BME280;29868;47.360;18.984;2023-02-22T09:14:51;100458.41;;;14.09;100.00
43818;BME280;29868;47.360;18.984;2023-02-22T09:17:17;100457.59;;;14.28;100.00
43818;BME280;29868;47.360;18.984;2023-02-22T09:19:42;100452.38;;;14.45;100.00
43818;BME280;29868;47.360;18.984;2023-02-22T09:22:09;100457.66;;;14.62;100.00
43818;BME280;29868;47.360;18.984;2023-02-22T09:24:35;100447.16;;;14.47;100.00
43818;BME280;29868;47.360;18.984;2023-02-22T09:27:00;100451.56;;;14.51;100.00
43818;BME280;29868;47.360;18.984;2023-02-22T09:29:29;100450.72;;;14.63;100.00
43818;BME280;29868;47.360;18.984;2023-02-22T09:31:55;100448.06;;;14.73;100.00
43818;BME280;29868;47.360;18.984;2023-02-22T09:34:22;100441.91;;;14.31;100.00
43818;BME280;29868;47.360;18.984;2023-02-22T09:36:54;100450.66;;;14.44;100.00
43818;BME280;29868;47.360;18.984;2023-02-22T09:39:21;100440.19;;;14.33;100.00
43818;BME280;29868;47.360;18.984;2023-02-22T09:42:08;100444.47;;;14.08;100.00
43818;BME280;29868;47.360;18.984;2023-02-22T09:44:53;100447.19;;;14.80;100.00
43818;BME280;29868;47.360;18.984;2023-02-22T09:47:23;100442.88;;;14.70;100.00
43818;BME280;29868;47.360;18.984;2023-02-22T09:52:58;100427.19;;;14.70;100.00
43818;BME280;29868;47.360;18.984;2023-02-22T09:55:38;100427.16;;;14.67;100.00
43818;BME280;29868;47.360;18.984;2023-02-22T09:58:17;100438.47;;;14.69;100.00
43818;BME280;29868;47.360;18.984;2023-02-22T10:00:45;100436.75;;;14.53;100.00
43818;BME280;29868;47.360;18.984;2023-02-22T10:03:30;100433.22;;;14.42;100.00
43818;BME280;29868;47.360;18.984;2023-02-22T10:06:08;100432.34;;;14.38;100.00
43818;BME280;29868;47.360;18.984;2023-02-22T10:08:36;100434.09;;;14.38;100.00
43818;BME280;29868;47.360;18.984;2023-02-22T10:17:07;100426.31;;;14.71;100.00
43818;BME280;29868;47.360;18.984;2023-02-22T10:25:25;100429.72;;;14.21;100.00
43818;BME280;29868;47.360;18.984;2023-02-22T10:30:27;100428.84;;;14.30;100.00
43818;BME280;29868;47.360;18.984;2023-02-22T10:33:03;100430.63;;;14.45;100.00
43818;BME280;29868;47.360;18.984;2023-02-22T10:35:34;100433.22;;;14.45;100.00
43818;BME280;29868;47.360;18.984;2023-02-22T10:38:19;100437.56;;;14.46;100.00
43818;BME280;29868;47.360;18.984;2023-02-22T10:41:02;100425.38;;;14.40;100.00
43818;BME280;29868;47.360;18.984;2023-02-22T10:43:29;100425.34;;;14.09;100.00
43818;BME280;29868;47.360;18.984;2023-02-22T10:45:59;100425.31;;;14.11;100.00
43818;BME280;29868;47.360;18.984;2023-02-22T10:48:26;100422.66;;;13.90;100.00
43818;BME280;29868;47.360;18.984;2023-02-22T10:50:58;100414.81;;;13.79;100.00
43818;BME280;29868;47.360;18.984;2023-02-22T10:53:26;100418.34;;;14.16;100.00
43818;BME280;29868;47.360;18.984;2023-02-22T10:56:19;100421.88;;;14.43;100.00
43818;BME280;29868;47.360;18.984;2023-02-22T10:58:54;100417.50;;;14.28;100.00
43818;BME280;29868;47.360;18.984;2023-02-22T11:01:35;100419.28;;;14.46;100.00
43818;BME280;29868;47.360;18.984;2023-02-22T11:04:14;100419.28;;;14.43;100.00
43818;BME280;29868;47.360;18.984;2023-02-22T11:06:45;100412.31;;;14.42;100.00
43818;BME280;29868;47.360;18.984;2023-02-22T11:09:16;100410.59;;;14.44;100.00
43818;BME280;29868;47.360;18.984;2023-02-22T11:11:44;100403.59;;;14.49;100.00
43818;BME280;29868;47.360;18.984;2023-02-22T11:14:13;100401.91;;;14.60;100.00
43818;BME280;29868;47.360;18.984;2023-02-22T11:16:51;100406.22;;;14.84;100.00
43818;BME280;29868;47.360;18.984;2023-02-22T11:21:46;100390.56;;;14.61;100.00
43818;BME280;29868;47.360;18.984;2023-02-22T11:24:13;100392.28;;;14.62;100.00
43818;BME280;29868;47.360;18.984;2023-02-22T11:26:45;100387.94;;;14.93;100.00
43818;BME280;29868;47.360;18.984;2023-02-22T11:29:36;100394.00;;;14.98;100.00
43818;BME280;29868;47.360;18.984;2023-02-22T11:32:12;100382.69;;;14.87;100.00
43818;BME280;29868;47.360;18.984;2023-02-22T11:34:40;100387.88;;;15.16;100.00
43818;BME280;29868;47.360;18.984;2023-02-22T11:39:40;100380.03;;;15.13;100.00
43818;BME280;29868;47.360;18.984;2023-02-22T11:42:28;100377.41;;;15.13;100.00
43818;BME280;29868;47.360;18.984;2023-02-22T11:45:15;100375.56;;;15.46;100.00
43818;BME280;29868;47.360;18.984;2023-02-22T11:47:51;100376.50;;;15.28;100.00
43818;BME280;29868;47.360;18.984;2023-02-22T11:50:54;100376.38;;;15.58;100.00
43818;BME280;29868;47.360;18.984;2023-02-22T11:53:31;100379.09;;;15.26;100.00
43818;BME280;29868;47.360;18.984;2023-02-22T11:56:13;100375.63;;;15.26;100.00
43818;BME280;29868;47.360;18.984;2023-02-22T12:01:39;100371.34;;;15.00;100.00
43818;BME280;29868;47.360;18.984;2023-02-22T12:14:43;100369.56;;;15.07;100.00
43818;BME280;29868;47.360;18.984;2023-02-22T12:17:20;100367.03;;;14.82;100.00
43818;BME280;29868;47.360;18.984;2023-02-22T12:19:54;100360.00;;;15.00;99.40
43818;BME280;29868;47.360;18.984;2023-02-22T12:22:36;100363.47;;;15.08;95.97
43818;BME280;29868;47.360;18.984;2023-02-22T12:27:46;100358.16;;;15.26;96.21
43818;BME280;29868;47.360;18.984;2023-02-22T12:30:19;100356.38;;;15.39;94.75
43818;BME280;29868;47.360;18.984;2023-02-22T12:32:50;100350.28;;;15.36;95.47
43818;BME280;29868;47.360;18.984;2023-02-22T12:35:22;100352.97;;;15.14;96.63
43818;BME280;29868;47.360;18.984;2023-02-22T12:38:36;100349.53;;;15.06;98.77
43818;BME280;29868;47.360;18.984;2023-02-22T12:43:49;100344.25;;;15.15;93.28
43818;BME280;29868;47.360;18.984;2023-02-22T12:46:17;100340.78;;;15.10;92.66
43818;BME280;29868;47.360;18.984;2023-02-22T12:48:52;100345.13;;;15.20;93.36
43818;BME280;29868;47.360;18.984;2023-02-22T12:56:33;100328.69;;;14.75;99.79
43818;BME280;29868;47.360;18.984;2023-02-22T12:59:19;100332.16;;;14.71;100.00
43818;BME280;29868;47.360;18.984;2023-02-22T13:01:50;100333.00;;;14.90;100.00
43818;BME280;29868;47.360;18.984;2023-02-22T13:04:19;100318.13;;;15.03;97.47
43818;BME280;29868;47.360;18.984;2023-02-22T13:12:23;100319.97;;;14.75;100.00
43818;BME280;29868;47.360;18.984;2023-02-22T13:15:06;100326.97;;;14.53;100.00
43818;BME280;29868;47.360;18.984;2023-02-22T13:17:53;100318.22;;;14.81;96.64
43818;BME280;29868;47.360;18.984;2023-02-22T13:20:39;100322.53;;;14.87;94.38
43818;BME280;29868;47.360;18.984;2023-02-22T13:25:41;100321.72;;;14.60;91.57
43818;BME280;29868;47.360;18.984;2023-02-22T13:28:17;100332.19;;;14.74;92.75
43818;BME280;29868;47.360;18.984;2023-02-22T13:30:57;100330.44;;;14.70;93.26
43818;BME280;29868;47.360;18.984;2023-02-22T13:36:40;100321.72;;;14.68;93.23
43818;BME280;29868;47.360;18.984;2023-02-22T13:42:23;100330.41;;;14.46;93.28
43818;BME280;29868;47.360;18.984;2023-02-22T13:51:04;100328.63;;;13.77;100.00
43818;BME280;29868;47.360;18.984;2023-02-22T13:53:53;100330.38;;;13.72;100.00
43818;BME280;29868;47.360;18.984;2023-02-22T13:56:22;100327.78;;;13.83;100.00
43818;BME280;29868;47.360;18.984;2023-02-22T13:58:57;100324.28;;;13.78;100.00
43818;BME280;29868;47.360;18.984;2023-02-22T14:01:44;100328.66;;;13.83;100.00
43818;BME280;29868;47.360;18.984;2023-02-22T14:06:58;100319.94;;;13.81;100.00
43818;BME280;29868;47.360;18.984;2023-02-22T14:09:50;100321.69;;;13.90;98.83
43818;BME280;29868;47.360;18.984;2023-02-22T14:17:37;100318.16;;;13.62;100.00
43818;BME280;29868;47.360;18.984;2023-02-22T14:20:18;100310.34;;;13.60;100.00
43818;BME280;29868;47.360;18.984;2023-02-22T14:22:49;100310.31;;;13.62;100.00
43818;BME280;29868;47.360;18.984;2023-02-22T14:27:52;100317.28;;;13.71;100.00
43818;BME280;29868;47.360;18.984;2023-02-22T14:30:30;100321.66;;;13.73;100.00
43818;BME280;29868;47.360;18.984;2023-02-22T14:32:57;100317.31;;;13.77;96.26
43818;BME280;29868;47.360;18.984;2023-02-22T14:35:27;100322.56;;;13.92;94.27
43818;BME280;29868;47.360;18.984;2023-02-22T14:37:58;100315.63;;;13.91;89.62
43818;BME280;29868;47.360;18.984;2023-02-22T14:40:33;100326.06;;;14.02;90.18
43818;BME280;29868;47.360;18.984;2023-02-22T14:43:13;100326.06;;;14.02;86.38
43818;BME280;29868;47.360;18.984;2023-02-22T14:45:55;100321.69;;;13.85;87.65
43818;BME280;29868;47.360;18.984;2023-02-22T14:48:27;100325.91;;;13.39;88.51
43818;BME280;29868;47.360;18.984;2023-02-22T14:51:03;100311.13;;;13.39;87.68
43818;BME280;29868;47.360;18.984;2023-02-22T14:56:16;100314.59;;;13.31;90.03
43818;BME280;29868;47.360;18.984;2023-02-22T14:58:54;100309.38;;;13.34;89.56
43818;BME280;29868;47.360;18.984;2023-02-22T15:01:25;100315.53;;;13.56;89.05
43818;BME280;29868;47.360;18.984;2023-02-22T15:03:51;100312.09;;;13.60;90.64
43818;BME280;29868;47.360;18.984;2023-02-22T15:06:24;100318.09;;;13.41;94.59
43818;BME280;29868;47.360;18.984;2023-02-22T15:09:24;100315.41;;;13.25;90.30
43818;BME280;29868;47.360;18.984;2023-02-22T15:11:56;100309.34;;;13.26;92.87
43818;BME280;29868;47.360;18.984;2023-02-22T15:14:36;100311.97;;;13.32;97.02
43818;BME280;29868;47.360;18.984;2023-02-22T15:17:20;100298.94;;;13.32;95.66
43818;BME280;29868;47.360;18.984;2023-02-22T15:19:49;100298.84;;;13.20;95.97
43818;BME280;29868;47.360;18.984;2023-02-22T15:22:21;100298.00;;;13.20;93.81
43818;BME280;29868;47.360;18.984;2023-02-22T15:25:00;100294.50;;;13.21;93.09
43818;BME280;29868;47.360;18.984;2023-02-22T15:27:27;100297.09;;;13.11;94.92
43818;BME280;29868;47.360;18.984;2023-02-22T15:29:58;100291.69;;;12.73;96.98
43818;BME280;29868;47.360;18.984;2023-02-22T15:32:39;100291.78;;;12.93;100.00
43818;BME280;29868;47.360;18.984;2023-02-22T15:35:17;100292.66;;;12.94;100.00
43818;BME280;29868;47.360;18.984;2023-02-22T15:37:44;100290.78;;;12.71;100.00
43818;BME280;29868;47.360;18.984;2023-02-22T15:40:19;100288.09;;;12.56;100.00
43818;BME280;29868;47.360;18.984;2023-02-22T15:42:50;100292.38;;;12.49;100.00
43818;BME280;29868;47.360;18.984;2023-02-22T15:45:19;100287.13;;;12.40;100.00
43818;BME280;29868;47.360;18.984;2023-02-22T15:47:48;100281.09;;;12.49;100.00
43818;BME280;29868;47.360;18.984;2023-02-22T15:55:45;100292.22;;;12.26;100.00
43818;BME280;29868;47.360;18.984;2023-02-22T16:00:41;100295.50;;;12.04;100.00
43818;BME280;29868;47.360;18.984;2023-02-22T16:03:09;100289.34;;;11.91;100.00
43818;BME280;29868;47.360;18.984;2023-02-22T16:05:50;100290.06;;;11.81;100.00
43818;BME280;29868;47.360;18.984;2023-02-22T16:08:21;100290.88;;;11.74;100.00
43818;BME280;29868;47.360;18.984;2023-02-22T16:10:58;100296.84;;;11.65;100.00
43818;BME280;29868;47.360;18.984;2023-02-22T16:13:28;100289.84;;;11.58;100.00
43818;BME280;29868;47.360;18.984;2023-02-22T16:15:59;100292.41;;;11.55;100.00
43818;BME280;29868;47.360;18.984;2023-02-22T16:18:31;100295.78;;;11.48;100.00
43818;BME280;29868;47.360;18.984;2023-02-22T16:21:09;100288.00;;;11.46;100.00
43818;BME280;29868;47.360;18.984;2023-02-22T16:23:51;100290.47;;;11.34;100.00
43818;BME280;29868;47.360;18.984;2023-02-22T16:28:51;100287.81;;;11.32;100.00
43818;BME280;29868;47.360;18.984;2023-02-22T16:31:22;100293.00;;;11.29;100.00
43818;BME280;29868;47.360;18.984;2023-02-22T16:33:49;100293.84;;;11.27;100.00
43818;BME280;29868;47.360;18.984;2023-02-22T16:36:16;100292.00;;;11.18;100.00
43818;BME280;29868;47.360;18.984;2023-02-22T16:38:42;100296.25;;;11.11;100.00
43818;BME280;29868;47.360;18.984;2023-02-22T16:41:11;100301.41;;;11.07;100.00
43818;BME280;29868;47.360;18.984;2023-02-22T16:43:38;100304.78;;;11.01;100.00
43818;BME280;29868;47.360;18.984;2023-02-22T16:46:04;100300.44;;;10.99;100.00
43818;BME280;29868;47.360;18.984;2023-02-22T16:48:31;100310.69;;;10.89;100.00
43818;BME280;29868;47.360;18.984;2023-02-22T16:51:10;100306.41;;;10.91;100.00
43818;BME280;29868;47.360;18.984;2023-02-22T16:53:41;100307.31;;;10.96;100.00
43818;BME280;29868;47.360;18.984;2023-02-22T16:56:08;100311.59;;;10.91;100.00
43818;BME280;29868;47.360;18.984;2023-02-22T16:58:38;100301.00;;;10.78;100.00
43818;BME280;29868;47.360;18.984;2023-02-22T17:01:05;100309.63;;;10.75;100.00
43818;BME280;29868;47.360;18.984;2023-02-22T17:03:31;100305.28;;;10.74;100.00
43818;BME280;29868;47.360;18.984;2023-02-22T17:05:56;100313.78;;;10.64;100.00
43818;BME280;29868;47.360;18.984;2023-02-22T17:08:21;100317.25;;;10.63;100.00
43818;BME280;29868;47.360;18.984;2023-02-22T17:10:47;100317.19;;;10.60;100.00
43818;BME280;29868;47.360;18.984;2023-02-22T17:13:18;100307.66;;;10.57;100.00
43818;BME280;29868;47.360;18.984;2023-02-22T17:15:46;100313.56;;;10.48;100.00
43818;BME280;29868;47.360;18.984;2023-02-22T17:18:14;100313.56;;;10.47;100.00
43818;BME280;29868;47.360;18.984;2023-02-22T17:20:41;100318.81;;;10.50;100.00
43818;BME280;29868;47.360;18.984;2023-02-22T17:23:08;100315.19;;;10.40;100.00
43818;BME280;29868;47.360;18.984;2023-02-22T17:25:41;100312.53;;;10.37;100.00
43818;BME280;29868;47.360;18.984;2023-02-22T17:28:07;100318.53;;;10.33;100.00
43818;BME280;29868;47.360;18.984;2023-02-22T17:30:33;100313.28;;;10.30;100.00
43818;BME280;29868;47.360;18.984;2023-02-22T17:33:01;100317.59;;;10.30;100.00
43818;BME280;29868;47.360;18.984;2023-02-22T17:35:29;100307.19;;;10.27;100.00
43818;BME280;29868;47.360;18.984;2023-02-22T17:37:55;100307.91;;;10.19;100.00
43818;BME280;29868;47.360;18.984;2023-02-22T17:40:22;100310.44;;;10.16;100.00
43818;BME280;29868;47.360;18.984;2023-02-22T17:42:47;100319.03;;;10.14;100.00
43818;BME280;29868;47.360;18.984;2023-02-22T17:45:20;100305.13;;;10.10;100.00
43818;BME280;29868;47.360;18.984;2023-02-22T17:47:45;100306.00;;;10.09;100.00
43818;BME280;29868;47.360;18.984;2023-02-22T17:50:11;100310.31;;;10.09;100.00
43818;BME280;29868;47.360;18.984;2023-02-22T17:52:40;100307.72;;;10.09;100.00
43818;BME280;29868;47.360;18.984;2023-02-22T17:55:06;100307.66;;;10.06;100.00
43818;BME280;29868;47.360;18.984;2023-02-22T17:57:31;100307.59;;;10.03;100.00
43818;BME280;29868;47.360;18.984;2023-02-22T17:59:58;100307.66;;;10.06;100.00
43818;BME280;29868;47.360;18.984;2023-02-22T18:02:24;100305.00;;;10.03;100.00
43818;BME280;29868;47.360;18.984;2023-02-22T18:04:49;100304.28;;;10.10;100.00
43818;BME280;29868;47.360;18.984;2023-02-22T18:07:14;100308.44;;;10.00;100.00
43818;BME280;29868;47.360;18.984;2023-02-22T18:09:44;100304.19;;;10.05;100.00
43818;BME280;29868;47.360;18.984;2023-02-22T18:12:10;100305.06;;;10.04;100.00
43818;BME280;29868;47.360;18.984;2023-02-22T18:14:35;100302.22;;;9.92;100.00
43818;BME280;29868;47.360;18.984;2023-02-22T18:17:02;100299.50;;;9.84;100.00
43818;BME280;29868;47.360;18.984;2023-02-22T18:19:27;100295.97;;;9.79;100.00
43818;BME280;29868;47.360;18.984;2023-02-22T18:21:54;100295.97;;;9.81;100.00
43818;BME280;29868;47.360;18.984;2023-02-22T18:24:29;100301.91;;;9.73;100.00
43818;BME280;29868;47.360;18.984;2023-02-22T18:26:55;100301.75;;;9.66;100.00
43818;BME280;29868;47.360;18.984;2023-02-22T18:29:20;100306.06;;;9.62;100.00
43818;BME280;29868;47.360;18.984;2023-02-22T18:31:45;100304.19;;;9.57;100.00
43818;BME280;29868;47.360;18.984;2023-02-22T18:34:11;100303.31;;;9.55;100.00
43818;BME280;29868;47.360;18.984;2023-02-22T18:36:38;100296.28;;;9.50;100.00
43818;BME280;29868;47.360;18.984;2023-02-22T18:39:03;100303.13;;;9.45;100.00
43818;BME280;29868;47.360;18.984;2023-02-22T18:41:36;100302.19;;;9.42;100.00
43818;BME280;29868;47.360;18.984;2023-02-22T18:44:02;100303.13;;;9.45;100.00
43818;BME280;29868;47.360;18.984;2023-02-22T18:46:28;100296.19;;;9.44;100.00
43818;BME280;29868;47.360;18.984;2023-02-22T18:48:55;100298.66;;;9.37;100.00
43818;BME280;29868;47.360;18.984;2023-02-22T18:51:22;100297.56;;;9.27;100.00
43818;BME280;29868;47.360;18.984;2023-02-22T18:53:47;100306.56;;;9.44;100.00
43818;BME280;29868;47.360;18.984;2023-02-22T18:56:18;100306.19;;;9.70;100.00
43818;BME280;29868;47.360;18.984;2023-02-22T18:58:46;100307.19;;;9.78;100.00
43818;BME280;29868;47.360;18.984;2023-02-22T19:01:17;100305.56;;;9.85;100.00
43818;BME280;29868;47.360;18.984;2023-02-22T19:03:43;100304.63;;;9.80;100.00
43818;BME280;29868;47.360;18.984;2023-02-22T19:06:11;100310.78;;;9.86;100.00
43818;BME280;29868;47.360;18.984;2023-02-22T19:08:38;100309.16;;;9.91;100.00
43818;BME280;29868;47.360;18.984;2023-02-22T19:11:10;100310.53;;;9.72;100.00
43818;BME280;29868;47.360;18.984;2023-02-22T19:13:36;100305.41;;;9.74;100.00
43818;BME280;29868;47.360;18.984;2023-02-22T19:16:04;100298.56;;;9.79;100.00
43818;BME280;29868;47.360;18.984;2023-02-22T19:18:31;100307.09;;;9.73;100.00
43818;BME280;29868;47.360;18.984;2023-02-22T19:20:57;100308.78;;;9.70;100.00
43818;BME280;29868;47.360;18.984;2023-02-22T19:23:23;100307.94;;;9.72;100.00
43818;BME280;29868;47.360;18.984;2023-02-22T19:25:49;100311.13;;;9.58;100.00
43818;BME280;29868;47.360;18.984;2023-02-22T19:28:15;100316.50;;;9.67;100.00
43818;BME280;29868;47.360;18.984;2023-02-22T19:30:40;100313.63;;;9.52;100.00
43818;BME280;29868;47.360;18.984;2023-02-22T19:33:07;100314.50;;;9.54;100.00
43818;BME280;29868;47.360;18.984;2023-02-22T19:35:32;100322.13;;;9.44;100.00
43818;BME280;29868;47.360;18.984;2023-02-22T19:37:58;100329.28;;;9.58;100.00
43818;BME280;29868;47.360;18.984;2023-02-22T19:40:24;100327.56;;;9.58;100.00
43818;BME280;29868;47.360;18.984;2023-02-22T19:42:50;100324.09;;;9.58;100.00
43818;BME280;29868;47.360;18.984;2023-02-22T19:45:17;100327.97;;;9.34;100.00
43818;BME280;29868;47.360;18.984;2023-02-22T19:47:44;100336.59;;;9.33;100.00
43818;BME280;29868;47.360;18.984;2023-02-22T19:50:11;100333.34;;;9.43;100.00
43818;BME280;29868;47.360;18.984;2023-02-22T19:52:36;100332.84;;;9.19;100.00
43818;BME280;29868;47.360;18.984;2023-02-22T19:55:04;100325.06;;;9.19;100.00
43818;BME280;29868;47.360;18.984;2023-02-22T19:57:43;100332.59;;;9.08;100.00
43818;BME280;29868;47.360;18.984;2023-02-22T20:00:14;100340.53;;;9.14;100.00
43818;BME280;29868;47.360;18.984;2023-02-22T20:02:49;100333.69;;;9.18;100.00
43818;BME280;29868;47.360;18.984;2023-02-22T20:05:15;100340.28;;;9.04;100.00
43818;BME280;29868;47.360;18.984;2023-02-22T20:07:42;100341.06;;;8.99;100.00
43818;BME280;29868;47.360;18.984;2023-02-22T20:10:07;100338.53;;;9.02;100.00
43818;BME280;29868;47.360;18.984;2023-02-22T20:12:33;100350.09;;;9.17;100.00
43818;BME280;29868;47.360;18.984;2023-02-22T20:14:59;100347.41;;;9.14;100.00
43818;BME280;29868;47.360;18.984;2023-02-22T20:17:27;100345.63;;;9.11;100.00
43818;BME280;29868;47.360;18.984;2023-02-22T20:19:53;100334.25;;;9.05;100.00
43818;BME280;29868;47.360;18.984;2023-02-22T20:22:19;100343.81;;;9.07;100.00
43818;BME280;29868;47.360;18.984;2023-02-22T20:24:45;100341.38;;;9.13;100.00
43818;BME280;29868;47.360;18.984;2023-02-22T20:27:12;100337.50;;;8.94;100.00
43818;BME280;29868;47.360;18.984;2023-02-22T20:29:37;100336.03;;;9.07;100.00
43818;BME280;29868;47.360;18.984;2023-02-22T20:32:04;100337.84;;;9.11;100.00
43818;BME280;29868;47.360;18.984;2023-02-22T20:34:30;100339.25;;;8.95;100.00
43818;BME280;29868;47.360;18.984;2023-02-22T20:36:58;100341.06;;;8.99;100.00
43818;BME280;29868;47.360;18.984;2023-02-22T20:39:24;100331.47;;;8.95;100.00
43818;BME280;29868;47.360;18.984;2023-02-22T20:41:49;100336.19;;;8.74;100.00
43818;BME280;29868;47.360;18.984;2023-02-22T20:44:16;100341.44;;;8.78;100.00
43818;BME280;29868;47.360;18.984;2023-02-22T20:46:42;100342.97;;;8.69;100.00
43818;BME280;29868;47.360;18.984;2023-02-22T20:49:11;100339.00;;;8.85;100.00
43818;BME280;29868;47.360;18.984;2023-02-22T20:51:38;100343.09;;;8.75;100.00
43818;BME280;29868;47.360;18.984;2023-02-22T20:54:05;100335.16;;;8.67;100.00
43818;BME280;29868;47.360;18.984;2023-02-22T20:56:32;100338.06;;;8.81;100.00
43818;BME280;29868;47.360;18.984;2023-02-22T20:59:00;100342.34;;;8.79;100.00
43818;BME280;29868;47.360;18.984;2023-02-22T21:01:26;100349.00;;;8.68;100.00